sensor_id;sensor_type;location;lat;lon;timestamp;temperature;humidity
17346;DHT22;8790;53.590;10.002;2023-05-10T00:00:51;16.00;93.40
17346;DHT22;8790;53.590;10.002;2023-05-10T00:03:23;16.00;93.40
17346;DHT22;8790;53.590;10.002;2023-05-10T00:05:55;15.90;93.40
17346;DHT22;8790;53.590;10.002;2023-05-10T00:08:26;15.80;93.60
17346;DHT22;8790;53.590;10.002;2023-05-10T00:10:59;15.80;93.70
17346;DHT22;8790;53.590;10.002;2023-05-10T00:13:31;15.80;93.70
17346;DHT22;8790;53.590;10.002;2023-05-10T00:16:03;15.80;93.70
17346;DHT22;8790;53.590;10.002;2023-05-10T00:18:35;15.80;93.90
17346;DHT22;8790;53.590;10.002;2023-05-10T00:21:07;15.80;94.00
17346;DHT22;8790;53.590;10.002;2023-05-10T00:23:38;15.70;94.10
17346;DHT22;8790;53.590;10.002;2023-05-10T00:26:11;15.70;94.10
17346;DHT22;8790;53.590;10.002;2023-05-10T00:28:45;15.70;94.20
17346;DHT22;8790;53.590;10.002;2023-05-10T00:31:17;15.70;94.20
17346;DHT22;8790;53.590;10.002;2023-05-10T00:33:49;15.70;94.20
17346;DHT22;8790;53.590;10.002;2023-05-10T00:36:21;15.80;94.20
17346;DHT22;8790;53.590;10.002;2023-05-10T00:38:52;15.70;94.50
17346;DHT22;8790;53.590;10.002;2023-05-10T00:41:25;15.70;94.40
17346;DHT22;8790;53.590;10.002;2023-05-10T00:43:58;15.50;94.60
17346;DHT22;8790;53.590;10.002;2023-05-10T00:46:31;15.60;94.60
17346;DHT22;8790;53.590;10.002;2023-05-10T00:49:03;15.40;94.80
17346;DHT22;8790;53.590;10.002;2023-05-10T00:51:35;15.60;94.80
17346;DHT22;8790;53.590;10.002;2023-05-10T00:54:07;15.50;94.90
17346;DHT22;8790;53.590;10.002;2023-05-10T00:56:41;15.40;95.00
17346;DHT22;8790;53.590;10.002;2023-05-10T00:59:14;15.40;95.10
17346;DHT22;8790;53.590;10.002;2023-05-10T01:01:47;15.40;95.20
17346;DHT22;8790;53.590;10.002;2023-05-10T01:04:18;15.40;95.20
17346;DHT22;8790;53.590;10.002;2023-05-10T01:06:55;15.40;95.20
17346;DHT22;8790;53.590;10.002;2023-05-10T01:09:27;15.50;95.10
17346;DHT22;8790;53.590;10.002;2023-05-10T01:12:01;15.50;94.90
17346;DHT22;8790;53.590;10.002;2023-05-10T01:14:34;15.40;95.20
17346;DHT22;8790;53.590;10.002;2023-05-10T01:17:07;15.40;95.30
17346;DHT22;8790;53.590;10.002;2023-05-10T01:19:41;15.40;95.30
17346;DHT22;8790;53.590;10.002;2023-05-10T01:22:41;15.30;95.50
17346;DHT22;8790;53.590;10.002;2023-05-10T01:25:31;15.30;95.50
17346;DHT22;8790;53.590;10.002;2023-05-10T01:28:37;15.20;95.80
17346;DHT22;8790;53.590;10.002;2023-05-10T01:31:21;15.30;95.60
17346;DHT22;8790;53.590;10.002;2023-05-10T01:33:59;15.20;95.60
17346;DHT22;8790;53.590;10.002;2023-05-10T01:36:39;15.20;95.80
17346;DHT22;8790;53.590;10.002;2023-05-10T01:39:15;15.10;95.70
17346;DHT22;8790;53.590;10.002;2023-05-10T01:41:52;15.10;95.90
17346;DHT22;8790;53.590;10.002;2023-05-10T01:44:31;15.10;96.00
17346;DHT22;8790;53.590;10.002;2023-05-10T01:47:09;15.00;96.20
17346;DHT22;8790;53.590;10.002;2023-05-10T01:49:47;15.00;96.10
17346;DHT22;8790;53.590;10.002;2023-05-10T01:52:25;14.90;96.30
17346;DHT22;8790;53.590;10.002;2023-05-10T01:55:01;14.80;96.50
17346;DHT22;8790;53.590;10.002;2023-05-10T01:57:35;14.70;96.70
17346;DHT22;8790;53.590;10.002;2023-05-10T02:00:11;14.80;96.60
17346;DHT22;8790;53.590;10.002;2023-05-10T02:02:48;14.80;96.70
17346;DHT22;8790;53.590;10.002;2023-05-10T02:05:22;14.80;96.70
17346;DHT22;8790;53.590;10.002;2023-05-10T02:07:55;14.70;96.70
17346;DHT22;8790;53.590;10.002;2023-05-10T02:10:29;14.80;96.90
17346;DHT22;8790;53.590;10.002;2023-05-10T02:13:02;14.70;97.00
17346;DHT22;8790;53.590;10.002;2023-05-10T02:15:36;14.60;96.90
17346;DHT22;8790;53.590;10.002;2023-05-10T02:18:09;14.50;97.10
17346;DHT22;8790;53.590;10.002;2023-05-10T02:20:45;14.60;97.20
17346;DHT22;8790;53.590;10.002;2023-05-10T02:23:20;14.60;97.00
17346;DHT22;8790;53.590;10.002;2023-05-10T02:25:54;14.60;97.10
17346;DHT22;8790;53.590;10.002;2023-05-10T02:28:28;14.60;97.10
17346;DHT22;8790;53.590;10.002;2023-05-10T02:31:01;14.60;97.40
17346;DHT22;8790;53.590;10.002;2023-05-10T02:33:33;14.70;97.20
17346;DHT22;8790;53.590;10.002;2023-05-10T02:36:08;14.50;97.50
17346;DHT22;8790;53.590;10.002;2023-05-10T02:38:41;14.50;97.50
17346;DHT22;8790;53.590;10.002;2023-05-10T02:41:13;14.40;97.70
17346;DHT22;8790;53.590;10.002;2023-05-10T02:43:46;14.30;97.80
17346;DHT22;8790;53.590;10.002;2023-05-10T02:46:19;14.40;97.80
17346;DHT22;8790;53.590;10.002;2023-05-10T02:48:50;14.40;97.70
17346;DHT22;8790;53.590;10.002;2023-05-10T02:51:26;14.40;97.70
17346;DHT22;8790;53.590;10.002;2023-05-10T02:54:15;14.40;97.60
17346;DHT22;8790;53.590;10.002;2023-05-10T02:56:51;14.50;97.60
17346;DHT22;8790;53.590;10.002;2023-05-10T02:59:25;14.30;98.10
17346;DHT22;8790;53.590;10.002;2023-05-10T03:01:57;14.20;98.00
17346;DHT22;8790;53.590;10.002;2023-05-10T03:04:28;14.20;98.20
17346;DHT22;8790;53.590;10.002;2023-05-10T03:07:03;14.10;98.30
17346;DHT22;8790;53.590;10.002;2023-05-10T03:09:35;14.10;98.30
17346;DHT22;8790;53.590;10.002;2023-05-10T03:12:11;14.00;98.60
17346;DHT22;8790;53.590;10.002;2023-05-10T03:14:52;14.00;98.60
17346;DHT22;8790;53.590;10.002;2023-05-10T03:17:30;14.10;98.60
17346;DHT22;8790;53.590;10.002;2023-05-10T03:20:06;14.20;98.60
17346;DHT22;8790;53.590;10.002;2023-05-10T03:22:47;14.10;98.60
17346;DHT22;8790;53.590;10.002;2023-05-10T03:25:21;14.10;98.60
17346;DHT22;8790;53.590;10.002;2023-05-10T03:27:54;14.10;98.60
17346;DHT22;8790;53.590;10.002;2023-05-10T03:30:26;14.00;98.70
17346;DHT22;8790;53.590;10.002;2023-05-10T03:32:58;14.00;98.90
17346;DHT22;8790;53.590;10.002;2023-05-10T03:35:35;14.00;98.90
17346;DHT22;8790;53.590;10.002;2023-05-10T03:38:09;14.00;99.00
17346;DHT22;8790;53.590;10.002;2023-05-10T03:40:41;13.90;99.10
17346;DHT22;8790;53.590;10.002;2023-05-10T03:43:12;14.00;99.00
17346;DHT22;8790;53.590;10.002;2023-05-10T03:45:44;13.90;99.30
17346;DHT22;8790;53.590;10.002;2023-05-10T03:48:16;13.80;99.40
17346;DHT22;8790;53.590;10.002;2023-05-10T03:50:48;13.90;99.30
17346;DHT22;8790;53.590;10.002;2023-05-10T03:53:21;13.90;99.10
17346;DHT22;8790;53.590;10.002;2023-05-10T03:55:53;13.90;99.30
17346;DHT22;8790;53.590;10.002;2023-05-10T03:58:25;13.80;99.30
17346;DHT22;8790;53.590;10.002;2023-05-10T04:00:57;13.90;99.40
17346;DHT22;8790;53.590;10.002;2023-05-10T04:03:28;13.90;99.50
17346;DHT22;8790;53.590;10.002;2023-05-10T04:06:01;13.80;99.70
17346;DHT22;8790;53.590;10.002;2023-05-10T04:08:34;13.80;99.70
17346;DHT22;8790;53.590;10.002;2023-05-10T04:11:06;13.80;99.70
17346;DHT22;8790;53.590;10.002;2023-05-10T04:13:38;13.80;99.60
17346;DHT22;8790;53.590;10.002;2023-05-10T04:16:10;13.80;99.70
17346;DHT22;8790;53.590;10.002;2023-05-10T04:18:42;13.80;99.70
17346;DHT22;8790;53.590;10.002;2023-05-10T04:21:14;13.80;99.70
17346;DHT22;8790;53.590;10.002;2023-05-10T04:23:47;13.90;99.80
17346;DHT22;8790;53.590;10.002;2023-05-10T04:26:18;13.80;99.90
17346;DHT22;8790;53.590;10.002;2023-05-10T04:28:50;13.90;99.90
17346;DHT22;8790;53.590;10.002;2023-05-10T04:31:22;13.90;99.90
17346;DHT22;8790;53.590;10.002;2023-05-10T04:33:54;13.80;99.90
17346;DHT22;8790;53.590;10.002;2023-05-10T04:36:25;13.80;99.90
17346;DHT22;8790;53.590;10.002;2023-05-10T04:38:59;13.80;99.90
17346;DHT22;8790;53.590;10.002;2023-05-10T04:41:31;13.70;99.90
17346;DHT22;8790;53.590;10.002;2023-05-10T04:44:03;13.80;99.90
17346;DHT22;8790;53.590;10.002;2023-05-10T04:46:35;13.80;99.90
17346;DHT22;8790;53.590;10.002;2023-05-10T04:49:07;13.80;99.90
17346;DHT22;8790;53.590;10.002;2023-05-10T04:51:38;13.80;99.90
17346;DHT22;8790;53.590;10.002;2023-05-10T04:54:12;13.80;99.90
17346;DHT22;8790;53.590;10.002;2023-05-10T04:56:43;13.90;99.90
17346;DHT22;8790;53.590;10.002;2023-05-10T04:59:15;13.90;99.90
17346;DHT22;8790;53.590;10.002;2023-05-10T05:01:47;13.90;99.90
17346;DHT22;8790;53.590;10.002;2023-05-10T05:04:19;13.90;99.90
17346;DHT22;8790;53.590;10.002;2023-05-10T05:06:50;14.00;99.90
17346;DHT22;8790;53.590;10.002;2023-05-10T05:09:23;14.00;99.90
17346;DHT22;8790;53.590;10.002;2023-05-10T05:11:55;14.10;99.90
17346;DHT22;8790;53.590;10.002;2023-05-10T05:14:27;14.10;99.90
17346;DHT22;8790;53.590;10.002;2023-05-10T05:16:59;14.20;99.90
17346;DHT22;8790;53.590;10.002;2023-05-10T05:19:31;14.20;99.90
17346;DHT22;8790;53.590;10.002;2023-05-10T05:22:02;14.30;99.80
17346;DHT22;8790;53.590;10.002;2023-05-10T05:24:36;14.30;99.90
17346;DHT22;8790;53.590;10.002;2023-05-10T05:27:08;14.30;99.90
17346;DHT22;8790;53.590;10.002;2023-05-10T05:29:40;14.30;99.70
17346;DHT22;8790;53.590;10.002;2023-05-10T05:32:11;14.30;99.80
17346;DHT22;8790;53.590;10.002;2023-05-10T05:34:44;14.40;99.80
17346;DHT22;8790;53.590;10.002;2023-05-10T05:37:17;14.40;99.60
17346;DHT22;8790;53.590;10.002;2023-05-10T05:39:51;14.40;99.50
17346;DHT22;8790;53.590;10.002;2023-05-10T05:42:22;14.40;99.60
17346;DHT22;8790;53.590;10.002;2023-05-10T05:44:54;14.50;99.40
17346;DHT22;8790;53.590;10.002;2023-05-10T05:47:26;14.50;99.40
17346;DHT22;8790;53.590;10.002;2023-05-10T05:49:57;14.50;99.50
17346;DHT22;8790;53.590;10.002;2023-05-10T05:52:30;14.60;99.30
17346;DHT22;8790;53.590;10.002;2023-05-10T05:55:03;14.60;99.30
17346;DHT22;8790;53.590;10.002;2023-05-10T05:57:35;14.60;99.50
17346;DHT22;8790;53.590;10.002;2023-05-10T06:00:08;14.50;99.50
17346;DHT22;8790;53.590;10.002;2023-05-10T06:02:46;14.60;99.30
17346;DHT22;8790;53.590;10.002;2023-05-10T06:05:18;14.60;99.30
17346;DHT22;8790;53.590;10.002;2023-05-10T06:07:51;14.70;99.40
17346;DHT22;8790;53.590;10.002;2023-05-10T06:10:24;14.70;99.30
17346;DHT22;8790;53.590;10.002;2023-05-10T06:12:56;14.80;99.10
17346;DHT22;8790;53.590;10.002;2023-05-10T06:15:28;14.80;98.90
17346;DHT22;8790;53.590;10.002;2023-05-10T06:17:59;14.80;99.00
17346;DHT22;8790;53.590;10.002;2023-05-10T06:20:31;14.70;99.20
17346;DHT22;8790;53.590;10.002;2023-05-10T06:23:03;14.80;99.20
17346;DHT22;8790;53.590;10.002;2023-05-10T06:25:36;14.80;99.30
17346;DHT22;8790;53.590;10.002;2023-05-10T06:28:07;14.90;99.20
17346;DHT22;8790;53.590;10.002;2023-05-10T06:30:39;14.90;99.10
17346;DHT22;8790;53.590;10.002;2023-05-10T06:33:11;15.00;99.00
17346;DHT22;8790;53.590;10.002;2023-05-10T06:35:42;15.00;98.90
17346;DHT22;8790;53.590;10.002;2023-05-10T06:38:14;15.00;99.00
17346;DHT22;8790;53.590;10.002;2023-05-10T06:40:47;15.10;99.00
17346;DHT22;8790;53.590;10.002;2023-05-10T06:43:19;15.00;99.10
17346;DHT22;8790;53.590;10.002;2023-05-10T06:45:51;15.00;99.40
17346;DHT22;8790;53.590;10.002;2023-05-10T06:48:23;15.00;99.40
17346;DHT22;8790;53.590;10.002;2023-05-10T06:50:55;15.00;99.30
17346;DHT22;8790;53.590;10.002;2023-05-10T06:53:26;15.00;99.40
17346;DHT22;8790;53.590;10.002;2023-05-10T06:55:59;15.10;99.30
17346;DHT22;8790;53.590;10.002;2023-05-10T06:58:32;15.20;99.50
17346;DHT22;8790;53.590;10.002;2023-05-10T07:01:04;15.20;99.30
17346;DHT22;8790;53.590;10.002;2023-05-10T07:03:35;15.30;99.20
17346;DHT22;8790;53.590;10.002;2023-05-10T07:06:07;15.30;99.30
17346;DHT22;8790;53.590;10.002;2023-05-10T07:08:40;15.40;99.50
17346;DHT22;8790;53.590;10.002;2023-05-10T07:11:13;15.50;99.50
17346;DHT22;8790;53.590;10.002;2023-05-10T07:13:45;15.50;99.20
17346;DHT22;8790;53.590;10.002;2023-05-10T07:16:16;15.50;99.40
17346;DHT22;8790;53.590;10.002;2023-05-10T07:18:48;15.60;99.50
17346;DHT22;8790;53.590;10.002;2023-05-10T07:21:20;15.60;99.30
17346;DHT22;8790;53.590;10.002;2023-05-10T07:23:54;15.70;99.40
17346;DHT22;8790;53.590;10.002;2023-05-10T07:26:27;15.70;99.20
17346;DHT22;8790;53.590;10.002;2023-05-10T07:28:59;15.80;99.30
17346;DHT22;8790;53.590;10.002;2023-05-10T07:31:31;15.80;99.40
17346;DHT22;8790;53.590;10.002;2023-05-10T07:34:03;15.80;99.50
17346;DHT22;8790;53.590;10.002;2023-05-10T07:36:35;15.80;99.40
17346;DHT22;8790;53.590;10.002;2023-05-10T07:39:06;15.90;99.50
17346;DHT22;8790;53.590;10.002;2023-05-10T07:41:39;15.90;99.40
17346;DHT22;8790;53.590;10.002;2023-05-10T07:44:11;15.90;99.30
17346;DHT22;8790;53.590;10.002;2023-05-10T07:46:43;15.90;99.30
17346;DHT22;8790;53.590;10.002;2023-05-10T07:49:15;16.00;99.40
17346;DHT22;8790;53.590;10.002;2023-05-10T07:51:47;16.10;99.20
17346;DHT22;8790;53.590;10.002;2023-05-10T07:54:19;16.10;99.20
17346;DHT22;8790;53.590;10.002;2023-05-10T07:56:52;16.10;99.20
17346;DHT22;8790;53.590;10.002;2023-05-10T07:59:24;16.10;99.20
17346;DHT22;8790;53.590;10.002;2023-05-10T08:01:55;16.20;99.00
17346;DHT22;8790;53.590;10.002;2023-05-10T08:04:27;16.20;99.00
17346;DHT22;8790;53.590;10.002;2023-05-10T08:06:59;16.20;98.90
17346;DHT22;8790;53.590;10.002;2023-05-10T08:09:31;16.20;98.90
17346;DHT22;8790;53.590;10.002;2023-05-10T08:12:04;16.30;98.80
17346;DHT22;8790;53.590;10.002;2023-05-10T08:14:36;16.20;98.80
17346;DHT22;8790;53.590;10.002;2023-05-10T08:17:08;16.30;99.00
17346;DHT22;8790;53.590;10.002;2023-05-10T08:19:40;16.30;99.00
17346;DHT22;8790;53.590;10.002;2023-05-10T08:22:12;16.30;98.80
17346;DHT22;8790;53.590;10.002;2023-05-10T08:24:43;16.30;99.20
17346;DHT22;8790;53.590;10.002;2023-05-10T08:27:17;16.40;99.20
17346;DHT22;8790;53.590;10.002;2023-05-10T08:29:49;16.40;99.10
17346;DHT22;8790;53.590;10.002;2023-05-10T08:32:20;16.40;99.10
17346;DHT22;8790;53.590;10.002;2023-05-10T08:34:52;16.40;99.50
17346;DHT22;8790;53.590;10.002;2023-05-10T08:37:24;16.50;99.00
17346;DHT22;8790;53.590;10.002;2023-05-10T08:39:55;16.50;99.40
17346;DHT22;8790;53.590;10.002;2023-05-10T08:42:30;16.50;99.10
17346;DHT22;8790;53.590;10.002;2023-05-10T08:45:02;16.40;99.20
17346;DHT22;8790;53.590;10.002;2023-05-10T08:47:35;16.40;99.40
17346;DHT22;8790;53.590;10.002;2023-05-10T08:50:09;16.40;99.60
17346;DHT22;8790;53.590;10.002;2023-05-10T08:52:41;16.50;99.20
17346;DHT22;8790;53.590;10.002;2023-05-10T08:55:13;16.60;99.40
17346;DHT22;8790;53.590;10.002;2023-05-10T08:57:46;16.50;99.30
17346;DHT22;8790;53.590;10.002;2023-05-10T09:00:19;16.60;99.30
17346;DHT22;8790;53.590;10.002;2023-05-10T09:02:51;16.60;99.50
17346;DHT22;8790;53.590;10.002;2023-05-10T09:05:23;16.60;99.60
17346;DHT22;8790;53.590;10.002;2023-05-10T09:07:55;16.70;99.60
17346;DHT22;8790;53.590;10.002;2023-05-10T09:10:27;16.70;99.40
17346;DHT22;8790;53.590;10.002;2023-05-10T09:13:01;16.60;99.50
17346;DHT22;8790;53.590;10.002;2023-05-10T09:15:33;16.60;99.90
17346;DHT22;8790;53.590;10.002;2023-05-10T09:18:05;16.70;99.80
17346;DHT22;8790;53.590;10.002;2023-05-10T09:20:36;16.70;99.70
17346;DHT22;8790;53.590;10.002;2023-05-10T09:23:08;16.70;99.70
17346;DHT22;8790;53.590;10.002;2023-05-10T09:25:41;16.70;99.90
17346;DHT22;8790;53.590;10.002;2023-05-10T09:28:14;16.80;99.90
17346;DHT22;8790;53.590;10.002;2023-05-10T09:30:53;16.80;99.90
17346;DHT22;8790;53.590;10.002;2023-05-10T09:33:25;16.90;99.90
17346;DHT22;8790;53.590;10.002;2023-05-10T09:36:06;16.90;99.90
17346;DHT22;8790;53.590;10.002;2023-05-10T09:38:48;16.90;99.90
17346;DHT22;8790;53.590;10.002;2023-05-10T09:41:22;17.00;99.90
17346;DHT22;8790;53.590;10.002;2023-05-10T09:43:56;16.90;99.90
17346;DHT22;8790;53.590;10.002;2023-05-10T09:46:28;16.90;99.90
17346;DHT22;8790;53.590;10.002;2023-05-10T09:49:00;16.90;99.90
17346;DHT22;8790;53.590;10.002;2023-05-10T09:51:31;16.80;99.90
17346;DHT22;8790;53.590;10.002;2023-05-10T09:54:11;16.70;99.90
17346;DHT22;8790;53.590;10.002;2023-05-10T09:56:43;16.60;99.90
17346;DHT22;8790;53.590;10.002;2023-05-10T09:59:16;16.60;99.90
17346;DHT22;8790;53.590;10.002;2023-05-10T10:01:50;16.40;99.90
17346;DHT22;8790;53.590;10.002;2023-05-10T10:04:22;16.50;99.90
17346;DHT22;8790;53.590;10.002;2023-05-10T10:07:01;16.60;99.90
17346;DHT22;8790;53.590;10.002;2023-05-10T10:09:34;16.60;99.90
17346;DHT22;8790;53.590;10.002;2023-05-10T10:12:06;16.40;99.90
17346;DHT22;8790;53.590;10.002;2023-05-10T10:14:40;16.40;99.90
17346;DHT22;8790;53.590;10.002;2023-05-10T10:17:13;16.40;99.90
17346;DHT22;8790;53.590;10.002;2023-05-10T10:19:45;16.30;99.90
17346;DHT22;8790;53.590;10.002;2023-05-10T10:22:18;16.30;99.90
17346;DHT22;8790;53.590;10.002;2023-05-10T10:24:50;16.30;99.90
17346;DHT22;8790;53.590;10.002;2023-05-10T10:27:26;16.20;99.90
17346;DHT22;8790;53.590;10.002;2023-05-10T10:30:06;16.10;99.90
17346;DHT22;8790;53.590;10.002;2023-05-10T10:32:55;15.80;99.90
17346;DHT22;8790;53.590;10.002;2023-05-10T10:35:32;15.80;99.90
17346;DHT22;8790;53.590;10.002;2023-05-10T10:38:04;15.80;99.90
17346;DHT22;8790;53.590;10.002;2023-05-10T10:40:39;15.80;99.90
17346;DHT22;8790;53.590;10.002;2023-05-10T10:43:31;15.80;99.90
17346;DHT22;8790;53.590;10.002;2023-05-10T10:46:12;15.90;99.90
17346;DHT22;8790;53.590;10.002;2023-05-10T10:48:48;15.80;99.90
17346;DHT22;8790;53.590;10.002;2023-05-10T10:51:20;15.80;99.90
17346;DHT22;8790;53.590;10.002;2023-05-10T10:53:51;15.80;99.90
17346;DHT22;8790;53.590;10.002;2023-05-10T10:56:23;15.60;99.90
17346;DHT22;8790;53.590;10.002;2023-05-10T10:58:59;15.60;99.90
17346;DHT22;8790;53.590;10.002;2023-05-10T11:01:34;15.70;99.90
17346;DHT22;8790;53.590;10.002;2023-05-10T11:04:18;15.60;99.90
17346;DHT22;8790;53.590;10.002;2023-05-10T11:06:51;15.50;99.90
17346;DHT22;8790;53.590;10.002;2023-05-10T11:09:42;15.50;99.90
17346;DHT22;8790;53.590;10.002;2023-05-10T11:12:14;15.60;99.90
17346;DHT22;8790;53.590;10.002;2023-05-10T11:14:49;15.50;99.90
17346;DHT22;8790;53.590;10.002;2023-05-10T11:17:27;15.50;99.90
17346;DHT22;8790;53.590;10.002;2023-05-10T11:20:06;15.60;99.90
17346;DHT22;8790;53.590;10.002;2023-05-10T11:23:12;15.70;99.90
17346;DHT22;8790;53.590;10.002;2023-05-10T11:25:47;15.60;99.90
17346;DHT22;8790;53.590;10.002;2023-05-10T11:28:19;15.70;99.90
17346;DHT22;8790;53.590;10.002;2023-05-10T11:30:51;15.50;99.90
17346;DHT22;8790;53.590;10.002;2023-05-10T11:33:25;15.50;99.90
17346;DHT22;8790;53.590;10.002;2023-05-10T11:35:56;15.40;99.90
17346;DHT22;8790;53.590;10.002;2023-05-10T11:38:28;15.40;99.90
17346;DHT22;8790;53.590;10.002;2023-05-10T11:41:04;15.50;99.90
17346;DHT22;8790;53.590;10.002;2023-05-10T11:43:36;15.50;99.90
17346;DHT22;8790;53.590;10.002;2023-05-10T11:46:11;15.40;99.90
17346;DHT22;8790;53.590;10.002;2023-05-10T11:48:44;15.30;99.90
17346;DHT22;8790;53.590;10.002;2023-05-10T11:51:20;15.40;99.90
17346;DHT22;8790;53.590;10.002;2023-05-10T11:53:54;15.40;99.90
17346;DHT22;8790;53.590;10.002;2023-05-10T11:56:26;15.40;99.90
17346;DHT22;8790;53.590;10.002;2023-05-10T11:58:58;15.40;99.90
17346;DHT22;8790;53.590;10.002;2023-05-10T12:01:32;15.40;99.90
17346;DHT22;8790;53.590;10.002;2023-05-10T12:04:05;15.40;99.90
17346;DHT22;8790;53.590;10.002;2023-05-10T12:06:40;15.50;99.90
17346;DHT22;8790;53.590;10.002;2023-05-10T12:09:12;15.50;99.90
17346;DHT22;8790;53.590;10.002;2023-05-10T12:11:43;15.50;99.90
17346;DHT22;8790;53.590;10.002;2023-05-10T12:14:16;15.40;99.90
17346;DHT22;8790;53.590;10.002;2023-05-10T12:16:50;15.30;99.90
17346;DHT22;8790;53.590;10.002;2023-05-10T12:19:23;15.30;99.90
17346;DHT22;8790;53.590;10.002;2023-05-10T12:21:55;15.30;99.90
17346;DHT22;8790;53.590;10.002;2023-05-10T12:24:27;15.40;99.90
17346;DHT22;8790;53.590;10.002;2023-05-10T12:26:59;15.50;99.90
17346;DHT22;8790;53.590;10.002;2023-05-10T12:29:30;15.60;99.90
17346;DHT22;8790;53.590;10.002;2023-05-10T12:32:02;15.60;99.90
17346;DHT22;8790;53.590;10.002;2023-05-10T12:34:36;15.50;99.90
17346;DHT22;8790;53.590;10.002;2023-05-10T12:37:08;15.50;99.90
17346;DHT22;8790;53.590;10.002;2023-05-10T12:39:41;15.70;99.90
17346;DHT22;8790;53.590;10.002;2023-05-10T12:42:13;15.70;99.90
17346;DHT22;8790;53.590;10.002;2023-05-10T12:44:45;15.80;99.90
17346;DHT22;8790;53.590;10.002;2023-05-10T12:47:17;15.70;99.90
17346;DHT22;8790;53.590;10.002;2023-05-10T12:49:50;15.60;99.90
17346;DHT22;8790;53.590;10.002;2023-05-10T12:52:22;15.80;99.90
17346;DHT22;8790;53.590;10.002;2023-05-10T12:54:54;15.80;99.90
17346;DHT22;8790;53.590;10.002;2023-05-10T12:57:26;15.80;99.90
17346;DHT22;8790;53.590;10.002;2023-05-10T12:59:58;15.80;99.90
17346;DHT22;8790;53.590;10.002;2023-05-10T13:02:31;15.80;99.90
17346;DHT22;8790;53.590;10.002;2023-05-10T13:05:05;15.90;99.90
17346;DHT22;8790;53.590;10.002;2023-05-10T13:07:37;15.90;99.90
17346;DHT22;8790;53.590;10.002;2023-05-10T13:10:09;15.80;99.90
17346;DHT22;8790;53.590;10.002;2023-05-10T13:12:40;15.90;99.90
17346;DHT22;8790;53.590;10.002;2023-05-10T13:15:13;16.00;99.90
17346;DHT22;8790;53.590;10.002;2023-05-10T13:17:45;16.10;99.90
17346;DHT22;8790;53.590;10.002;2023-05-10T13:20:19;16.10;99.90
17346;DHT22;8790;53.590;10.002;2023-05-10T13:22:51;16.10;99.90
17346;DHT22;8790;53.590;10.002;2023-05-10T13:25:23;16.10;99.90
17346;DHT22;8790;53.590;10.002;2023-05-10T13:27:55;16.20;99.90
17346;DHT22;8790;53.590;10.002;2023-05-10T13:30:26;16.20;99.90
17346;DHT22;8790;53.590;10.002;2023-05-10T13:32:59;16.20;99.90
17346;DHT22;8790;53.590;10.002;2023-05-10T13:35:32;16.30;99.90
17346;DHT22;8790;53.590;10.002;2023-05-10T13:38:04;16.30;99.90
17346;DHT22;8790;53.590;10.002;2023-05-10T13:40:38;16.40;99.90
17346;DHT22;8790;53.590;10.002;2023-05-10T13:43:09;16.40;99.90
17346;DHT22;8790;53.590;10.002;2023-05-10T13:45:41;16.40;99.90
17346;DHT22;8790;53.590;10.002;2023-05-10T13:48:13;16.40;99.90
17346;DHT22;8790;53.590;10.002;2023-05-10T13:50:46;16.50;99.90
17346;DHT22;8790;53.590;10.002;2023-05-10T13:53:17;16.50;99.90
17346;DHT22;8790;53.590;10.002;2023-05-10T13:55:49;16.50;99.90
17346;DHT22;8790;53.590;10.002;2023-05-10T13:58:21;16.40;99.90
17346;DHT22;8790;53.590;10.002;2023-05-10T14:00:54;16.50;99.90
17346;DHT22;8790;53.590;10.002;2023-05-10T14:03:25;16.50;99.90
17346;DHT22;8790;53.590;10.002;2023-05-10T14:05:59;16.50;99.90
17346;DHT22;8790;53.590;10.002;2023-05-10T14:08:30;16.50;99.90
17346;DHT22;8790;53.590;10.002;2023-05-10T14:11:02;16.60;99.90
17346;DHT22;8790;53.590;10.002;2023-05-10T14:13:34;16.60;99.90
17346;DHT22;8790;53.590;10.002;2023-05-10T14:16:06;16.60;99.90
17346;DHT22;8790;53.590;10.002;2023-05-10T14:18:38;16.60;99.90
17346;DHT22;8790;53.590;10.002;2023-05-10T14:21:11;16.70;99.90
17346;DHT22;8790;53.590;10.002;2023-05-10T14:23:43;16.70;99.90
17346;DHT22;8790;53.590;10.002;2023-05-10T14:26:14;16.70;99.90
17346;DHT22;8790;53.590;10.002;2023-05-10T14:28:46;16.70;99.90
17346;DHT22;8790;53.590;10.002;2023-05-10T14:31:18;16.80;99.90
17346;DHT22;8790;53.590;10.002;2023-05-10T14:33:51;16.90;99.90
17346;DHT22;8790;53.590;10.002;2023-05-10T14:36:24;16.80;99.90
17346;DHT22;8790;53.590;10.002;2023-05-10T14:38:56;16.90;99.90
17346;DHT22;8790;53.590;10.002;2023-05-10T14:41:28;16.90;99.90
17346;DHT22;8790;53.590;10.002;2023-05-10T14:44:00;16.90;99.90
17346;DHT22;8790;53.590;10.002;2023-05-10T14:46:33;16.90;99.90
17346;DHT22;8790;53.590;10.002;2023-05-10T14:49:05;16.90;99.90
17346;DHT22;8790;53.590;10.002;2023-05-10T14:51:38;16.90;99.90
17346;DHT22;8790;53.590;10.002;2023-05-10T14:54:10;16.90;99.90
17346;DHT22;8790;53.590;10.002;2023-05-10T14:56:42;16.80;99.90
17346;DHT22;8790;53.590;10.002;2023-05-10T14:59:14;16.80;99.90
17346;DHT22;8790;53.590;10.002;2023-05-10T15:01:46;16.90;99.90
17346;DHT22;8790;53.590;10.002;2023-05-10T15:04:18;16.90;99.90
17346;DHT22;8790;53.590;10.002;2023-05-10T15:06:51;16.80;99.90
17346;DHT22;8790;53.590;10.002;2023-05-10T15:09:22;16.90;99.90
17346;DHT22;8790;53.590;10.002;2023-05-10T15:11:54;16.90;99.90
17346;DHT22;8790;53.590;10.002;2023-05-10T15:14:26;17.00;99.90
17346;DHT22;8790;53.590;10.002;2023-05-10T15:16:58;16.90;99.90
17346;DHT22;8790;53.590;10.002;2023-05-10T15:19:30;16.90;99.90
17346;DHT22;8790;53.590;10.002;2023-05-10T15:22:05;16.90;99.90
17346;DHT22;8790;53.590;10.002;2023-05-10T15:24:37;16.90;99.90
17346;DHT22;8790;53.590;10.002;2023-05-10T15:27:08;16.90;99.90
17346;DHT22;8790;53.590;10.002;2023-05-10T15:29:40;16.90;99.90
17346;DHT22;8790;53.590;10.002;2023-05-10T15:32:12;16.90;99.90
17346;DHT22;8790;53.590;10.002;2023-05-10T15:34:43;16.90;99.90
17346;DHT22;8790;53.590;10.002;2023-05-10T15:37:17;16.90;99.90
17346;DHT22;8790;53.590;10.002;2023-05-10T15:39:48;17.00;99.90
17346;DHT22;8790;53.590;10.002;2023-05-10T15:42:20;17.00;99.90
17346;DHT22;8790;53.590;10.002;2023-05-10T15:44:52;17.00;99.90
17346;DHT22;8790;53.590;10.002;2023-05-10T15:47:25;17.00;99.90
17346;DHT22;8790;53.590;10.002;2023-05-10T15:49:56;17.10;99.90
17346;DHT22;8790;53.590;10.002;2023-05-10T15:52:30;17.00;99.90
17346;DHT22;8790;53.590;10.002;2023-05-10T15:55:01;17.00;99.90
17346;DHT22;8790;53.590;10.002;2023-05-10T15:57:33;17.00;99.90
17346;DHT22;8790;53.590;10.002;2023-05-10T16:00:06;17.00;99.90
17346;DHT22;8790;53.590;10.002;2023-05-10T16:02:42;17.00;99.90
17346;DHT22;8790;53.590;10.002;2023-05-10T16:05:14;17.00;99.90
17346;DHT22;8790;53.590;10.002;2023-05-10T16:07:47;17.10;99.90